sensor_id;sensor_type;location;lat;lon;timestamp;P1;durP1;ratioP1;P2;durP2;ratioP2
8708;SDS011;4391;48.678;9.280;2022-09-02T00:01:21;8.57;;;4.10;;
8708;SDS011;4391;48.678;9.280;2022-09-02T00:03:51;10.38;;;3.92;;
8708;SDS011;4391;48.678;9.280;2022-09-02T00:06:21;7.20;;;4.00;;
8708;SDS011;4391;48.678;9.280;2022-09-02T00:08:49;6.40;;;3.83;;
8708;SDS011;4391;48.678;9.280;2022-09-02T00:11:17;7.22;;;3.83;;
8708;SDS011;4391;48.678;9.280;2022-09-02T00:13:45;6.17;;;3.83;;
8708;SDS011;4391;48.678;9.280;2022-09-02T00:16:12;6.25;;;4.03;;
8708;SDS011;4391;48.678;9.280;2022-09-02T00:18:39;7.15;;;4.22;;
8708;SDS011;4391;48.678;9.280;2022-09-02T00:21:08;7.47;;;4.45;;
8708;SDS011;4391;48.678;9.280;2022-09-02T00:23:36;6.53;;;3.90;;
8708;SDS011;4391;48.678;9.280;2022-09-02T00:26:03;7.57;;;3.87;;
8708;SDS011;4391;48.678;9.280;2022-09-02T00:28:30;7.10;;;3.88;;
8708;SDS011;4391;48.678;9.280;2022-09-02T00:30:57;9.27;;;4.07;;
8708;SDS011;4391;48.678;9.280;2022-09-02T00:33:23;12.00;;;4.40;;
8708;SDS011;4391;48.678;9.280;2022-09-02T00:35:50;7.03;;;4.00;;
8708;SDS011;4391;48.678;9.280;2022-09-02T00:38:18;6.23;;;3.73;;
8708;SDS011;4391;48.678;9.280;2022-09-02T00:40:47;7.30;;;3.53;;
8708;SDS011;4391;48.678;9.280;2022-09-02T00:43:21;6.05;;;3.70;;
8708;SDS011;4391;48.678;9.280;2022-09-02T00:45:49;6.78;;;3.80;;
8708;SDS011;4391;48.678;9.280;2022-09-02T00:48:17;7.55;;;4.00;;
8708;SDS011;4391;48.678;9.280;2022-09-02T00:50:44;8.27;;;3.70;;
8708;SDS011;4391;48.678;9.280;2022-09-02T00:53:11;6.57;;;3.78;;
8708;SDS011;4391;48.678;9.280;2022-09-02T00:55:41;6.05;;;3.88;;
8708;SDS011;4391;48.678;9.280;2022-09-02T00:58:13;7.28;;;3.70;;
8708;SDS011;4391;48.678;9.280;2022-09-02T01:00:43;7.80;;;3.72;;
8708;SDS011;4391;48.678;9.280;2022-09-02T01:03:11;5.80;;;3.47;;
8708;SDS011;4391;48.678;9.280;2022-09-02T01:05:41;5.82;;;3.78;;
8708;SDS011;4391;48.678;9.280;2022-09-02T01:08:10;9.05;;;4.13;;
8708;SDS011;4391;48.678;9.280;2022-09-02T01:10:38;5.72;;;3.60;;
8708;SDS011;4391;48.678;9.280;2022-09-02T01:13:08;7.35;;;3.67;;
8708;SDS011;4391;48.678;9.280;2022-09-02T01:15:40;6.83;;;4.00;;
8708;SDS011;4391;48.678;9.280;2022-09-02T01:18:09;7.55;;;3.70;;
8708;SDS011;4391;48.678;9.280;2022-09-02T01:20:46;7.38;;;4.13;;
8708;SDS011;4391;48.678;9.280;2022-09-02T01:23:15;10.30;;;3.60;;
8708;SDS011;4391;48.678;9.280;2022-09-02T01:25:42;6.53;;;3.80;;
8708;SDS011;4391;48.678;9.280;2022-09-02T01:28:11;5.87;;;3.77;;
8708;SDS011;4391;48.678;9.280;2022-09-02T01:30:40;9.60;;;3.72;;
8708;SDS011;4391;48.678;9.280;2022-09-02T01:33:10;7.43;;;4.22;;
8708;SDS011;4391;48.678;9.280;2022-09-02T01:35:37;6.55;;;3.83;;
8708;SDS011;4391;48.678;9.280;2022-09-02T01:38:05;6.60;;;4.15;;
8708;SDS011;4391;48.678;9.280;2022-09-02T01:40:34;6.30;;;3.60;;
8708;SDS011;4391;48.678;9.280;2022-09-02T01:43:03;7.25;;;3.90;;
8708;SDS011;4391;48.678;9.280;2022-09-02T01:45:32;5.93;;;3.78;;
8708;SDS011;4391;48.678;9.280;2022-09-02T01:48:00;5.90;;;3.60;;
8708;SDS011;4391;48.678;9.280;2022-09-02T01:50:27;6.97;;;3.50;;
8708;SDS011;4391;48.678;9.280;2022-09-02T01:52:55;7.63;;;3.80;;
8708;SDS011;4391;48.678;9.280;2022-09-02T01:55:22;7.28;;;3.63;;
8708;SDS011;4391;48.678;9.280;2022-09-02T01:57:51;7.93;;;3.90;;
8708;SDS011;4391;48.678;9.280;2022-09-02T02:00:18;9.60;;;4.00;;
8708;SDS011;4391;48.678;9.280;2022-09-02T02:02:45;6.63;;;3.60;;
8708;SDS011;4391;48.678;9.280;2022-09-02T02:05:12;6.43;;;3.60;;
8708;SDS011;4391;48.678;9.280;2022-09-02T02:07:40;6.47;;;3.80;;
8708;SDS011;4391;48.678;9.280;2022-09-02T02:10:07;5.30;;;3.33;;
8708;SDS011;4391;48.678;9.280;2022-09-02T02:12:35;6.13;;;3.67;;
8708;SDS011;4391;48.678;9.280;2022-09-02T02:15:04;9.35;;;3.88;;
8708;SDS011;4391;48.678;9.280;2022-09-02T02:17:35;6.60;;;3.70;;
8708;SDS011;4391;48.678;9.280;2022-09-02T02:20:02;7.28;;;3.65;;
8708;SDS011;4391;48.678;9.280;2022-09-02T02:22:29;5.88;;;3.30;;
8708;SDS011;4391;48.678;9.280;2022-09-02T02:24:56;6.85;;;3.67;;
8708;SDS011;4391;48.678;9.280;2022-09-02T02:27:23;6.78;;;3.38;;
8708;SDS011;4391;48.678;9.280;2022-09-02T02:29:50;7.10;;;3.67;;
8708;SDS011;4391;48.678;9.280;2022-09-02T02:32:18;6.13;;;3.25;;
8708;SDS011;4391;48.678;9.280;2022-09-02T02:34:45;5.88;;;3.80;;
8708;SDS011;4391;48.678;9.280;2022-09-02T02:37:13;6.35;;;3.10;;
8708;SDS011;4391;48.678;9.280;2022-09-02T02:39:43;5.55;;;3.22;;
8708;SDS011;4391;48.678;9.280;2022-09-02T02:42:10;7.00;;;3.53;;
8708;SDS011;4391;48.678;9.280;2022-09-02T02:44:38;5.32;;;3.10;;
8708;SDS011;4391;48.678;9.280;2022-09-02T02:47:06;5.57;;;3.35;;
8708;SDS011;4391;48.678;9.280;2022-09-02T02:49:36;8.35;;;3.63;;
8708;SDS011;4391;48.678;9.280;2022-09-02T02:52:04;5.97;;;2.92;;
8708;SDS011;4391;48.678;9.280;2022-09-02T02:54:31;5.80;;;3.47;;
8708;SDS011;4391;48.678;9.280;2022-09-02T02:56:58;5.82;;;3.42;;
8708;SDS011;4391;48.678;9.280;2022-09-02T02:59:25;6.18;;;3.55;;
8708;SDS011;4391;48.678;9.280;2022-09-02T03:01:53;9.88;;;3.60;;
8708;SDS011;4391;48.678;9.280;2022-09-02T03:04:20;6.88;;;3.88;;
8708;SDS011;4391;48.678;9.280;2022-09-02T03:06:48;6.87;;;3.60;;
8708;SDS011;4391;48.678;9.280;2022-09-02T03:09:15;6.13;;;3.70;;
8708;SDS011;4391;48.678;9.280;2022-09-02T03:11:44;7.43;;;3.90;;
8708;SDS011;4391;48.678;9.280;2022-09-02T03:14:11;6.88;;;3.65;;
8708;SDS011;4391;48.678;9.280;2022-09-02T03:16:38;6.28;;;3.55;;
8708;SDS011;4391;48.678;9.280;2022-09-02T03:19:05;6.67;;;3.57;;
8708;SDS011;4391;48.678;9.280;2022-09-02T03:21:32;5.97;;;3.30;;
8708;SDS011;4391;48.678;9.280;2022-09-02T03:24:00;5.75;;;3.50;;
8708;SDS011;4391;48.678;9.280;2022-09-02T03:26:27;6.05;;;3.35;;
8708;SDS011;4391;48.678;9.280;2022-09-02T03:28:55;5.47;;;3.22;;
8708;SDS011;4391;48.678;9.280;2022-09-02T03:31:22;6.63;;;3.13;;
8708;SDS011;4391;48.678;9.280;2022-09-02T03:33:50;7.00;;;3.42;;
8708;SDS011;4391;48.678;9.280;2022-09-02T03:36:19;7.63;;;3.45;;
8708;SDS011;4391;48.678;9.280;2022-09-02T03:38:47;6.30;;;3.42;;
8708;SDS011;4391;48.678;9.280;2022-09-02T03:41:15;8.60;;;3.88;;
8708;SDS011;4391;48.678;9.280;2022-09-02T03:43:42;6.97;;;3.50;;
8708;SDS011;4391;48.678;9.280;2022-09-02T03:46:09;5.93;;;3.30;;
8708;SDS011;4391;48.678;9.280;2022-09-02T03:48:37;8.13;;;3.83;;
8708;SDS011;4391;48.678;9.280;2022-09-02T03:51:04;7.60;;;3.85;;
8708;SDS011;4391;48.678;9.280;2022-09-02T03:53:31;7.35;;;3.50;;
8708;SDS011;4391;48.678;9.280;2022-09-02T03:56:02;6.80;;;4.00;;
8708;SDS011;4391;48.678;9.280;2022-09-02T03:58:31;6.35;;;3.90;;
8708;SDS011;4391;48.678;9.280;2022-09-02T04:00:59;7.50;;;3.80;;
8708;SDS011;4391;48.678;9.280;2022-09-02T04:03:26;6.90;;;3.50;;
8708;SDS011;4391;48.678;9.280;2022-09-02T04:05:53;7.00;;;3.97;;
8708;SDS011;4391;48.678;9.280;2022-09-02T04:08:20;5.67;;;3.57;;
8708;SDS011;4391;48.678;9.280;2022-09-02T04:10:48;8.88;;;3.67;;
8708;SDS011;4391;48.678;9.280;2022-09-02T04:13:15;7.40;;;3.60;;
8708;SDS011;4391;48.678;9.280;2022-09-02T04:15:44;7.38;;;3.55;;
8708;SDS011;4391;48.678;9.280;2022-09-02T04:18:13;6.28;;;3.88;;
8708;SDS011;4391;48.678;9.280;2022-09-02T04:20:41;5.83;;;3.30;;
8708;SDS011;4391;48.678;9.280;2022-09-02T04:23:09;7.35;;;3.30;;
8708;SDS011;4391;48.678;9.280;2022-09-02T04:25:37;7.03;;;4.00;;
8708;SDS011;4391;48.678;9.280;2022-09-02T04:28:05;7.50;;;3.28;;
8708;SDS011;4391;48.678;9.280;2022-09-02T04:30:32;5.28;;;3.45;;
8708;SDS011;4391;48.678;9.280;2022-09-02T04:33:00;6.83;;;3.87;;
8708;SDS011;4391;48.678;9.280;2022-09-02T04:35:28;7.18;;;3.70;;
8708;SDS011;4391;48.678;9.280;2022-09-02T04:37:54;6.18;;;3.40;;
8708;SDS011;4391;48.678;9.280;2022-09-02T04:40:21;7.78;;;3.08;;
8708;SDS011;4391;48.678;9.280;2022-09-02T04:42:48;8.13;;;3.80;;
8708;SDS011;4391;48.678;9.280;2022-09-02T04:45:17;6.77;;;3.40;;
8708;SDS011;4391;48.678;9.280;2022-09-02T04:47:45;6.38;;;3.78;;
8708;SDS011;4391;48.678;9.280;2022-09-02T04:50:13;9.18;;;4.43;;
8708;SDS011;4391;48.678;9.280;2022-09-02T04:52:40;8.02;;;4.03;;
8708;SDS011;4391;48.678;9.280;2022-09-02T04:55:07;7.47;;;3.53;;
8708;SDS011;4391;48.678;9.280;2022-09-02T04:57:35;6.47;;;3.90;;
8708;SDS011;4391;48.678;9.280;2022-09-02T05:00:02;7.20;;;3.47;;
8708;SDS011;4391;48.678;9.280;2022-09-02T05:02:30;8.23;;;4.53;;
8708;SDS011;4391;48.678;9.280;2022-09-02T05:04:57;6.68;;;3.55;;
8708;SDS011;4391;48.678;9.280;2022-09-02T05:07:25;7.70;;;4.18;;
8708;SDS011;4391;48.678;9.280;2022-09-02T05:09:54;9.80;;;4.40;;
8708;SDS011;4391;48.678;9.280;2022-09-02T05:12:22;7.65;;;4.10;;
8708;SDS011;4391;48.678;9.280;2022-09-02T05:14:52;6.90;;;4.25;;
8708;SDS011;4391;48.678;9.280;2022-09-02T05:17:19;8.65;;;3.70;;
8708;SDS011;4391;48.678;9.280;2022-09-02T05:19:46;9.43;;;4.38;;
8708;SDS011;4391;48.678;9.280;2022-09-02T05:22:13;8.37;;;3.97;;
8708;SDS011;4391;48.678;9.280;2022-09-02T05:24:42;7.95;;;4.22;;
8708;SDS011;4391;48.678;9.280;2022-09-02T05:27:09;7.90;;;4.18;;
8708;SDS011;4391;48.678;9.280;2022-09-02T05:29:36;8.65;;;4.00;;
8708;SDS011;4391;48.678;9.280;2022-09-02T05:32:03;9.02;;;4.28;;
8708;SDS011;4391;48.678;9.280;2022-09-02T05:34:32;5.70;;;3.60;;
8708;SDS011;4391;48.678;9.280;2022-09-02T05:36:59;5.45;;;3.50;;
8708;SDS011;4391;48.678;9.280;2022-09-02T05:39:26;7.60;;;4.25;;
8708;SDS011;4391;48.678;9.280;2022-09-02T05:41:55;7.63;;;3.85;;
8708;SDS011;4391;48.678;9.280;2022-09-02T05:44:22;7.95;;;4.40;;
8708;SDS011;4391;48.678;9.280;2022-09-02T05:46:49;7.87;;;4.37;;
8708;SDS011;4391;48.678;9.280;2022-09-02T05:49:16;9.00;;;3.75;;
8708;SDS011;4391;48.678;9.280;2022-09-02T05:51:46;6.10;;;4.05;;
8708;SDS011;4391;48.678;9.280;2022-09-02T05:54:15;6.45;;;4.03;;
8708;SDS011;4391;48.678;9.280;2022-09-02T05:56:44;6.28;;;3.70;;
8708;SDS011;4391;48.678;9.280;2022-09-02T05:59:16;8.73;;;4.00;;
8708;SDS011;4391;48.678;9.280;2022-09-02T06:01:43;7.50;;;3.92;;
8708;SDS011;4391;48.678;9.280;2022-09-02T06:04:11;8.10;;;4.30;;
8708;SDS011;4391;48.678;9.280;2022-09-02T06:06:38;5.93;;;3.53;;
8708;SDS011;4391;48.678;9.280;2022-09-02T06:09:06;8.05;;;3.83;;
8708;SDS011;4391;48.678;9.280;2022-09-02T06:11:34;6.43;;;3.17;;
8708;SDS011;4391;48.678;9.280;2022-09-02T06:14:04;8.82;;;3.47;;
8708;SDS011;4391;48.678;9.280;2022-09-02T06:16:34;7.47;;;3.70;;
8708;SDS011;4391;48.678;9.280;2022-09-02T06:19:01;5.80;;;3.30;;
8708;SDS011;4391;48.678;9.280;2022-09-02T06:21:28;5.88;;;3.60;;
8708;SDS011;4391;48.678;9.280;2022-09-02T06:23:55;7.03;;;2.90;;
8708;SDS011;4391;48.678;9.280;2022-09-02T06:26:22;11.98;;;3.78;;
8708;SDS011;4391;48.678;9.280;2022-09-02T06:28:49;6.28;;;2.95;;
8708;SDS011;4391;48.678;9.280;2022-09-02T06:31:17;7.72;;;3.10;;
8708;SDS011;4391;48.678;9.280;2022-09-02T06:33:46;5.38;;;3.40;;
8708;SDS011;4391;48.678;9.280;2022-09-02T06:36:16;6.60;;;3.13;;
8708;SDS011;4391;48.678;9.280;2022-09-02T06:38:45;6.97;;;3.35;;
8708;SDS011;4391;48.678;9.280;2022-09-02T06:41:13;4.75;;;2.78;;
8708;SDS011;4391;48.678;9.280;2022-09-02T06:43:42;5.85;;;2.78;;
8708;SDS011;4391;48.678;9.280;2022-09-02T06:46:13;5.63;;;2.83;;
8708;SDS011;4391;48.678;9.280;2022-09-02T06:48:41;5.97;;;2.90;;
8708;SDS011;4391;48.678;9.280;2022-09-02T06:51:14;5.57;;;3.10;;
8708;SDS011;4391;48.678;9.280;2022-09-02T06:53:41;5.65;;;3.03;;
8708;SDS011;4391;48.678;9.280;2022-09-02T06:56:08;5.35;;;3.00;;
8708;SDS011;4391;48.678;9.280;2022-09-02T06:58:35;7.47;;;2.53;;
8708;SDS011;4391;48.678;9.280;2022-09-02T07:01:02;4.97;;;2.57;;
8708;SDS011;4391;48.678;9.280;2022-09-02T07:03:29;4.38;;;2.50;;
8708;SDS011;4391;48.678;9.280;2022-09-02T07:06:14;6.10;;;2.65;;
8708;SDS011;4391;48.678;9.280;2022-09-02T07:08:43;7.93;;;3.13;;
8708;SDS011;4391;48.678;9.280;2022-09-02T07:11:14;4.85;;;2.30;;
8708;SDS011;4391;48.678;9.280;2022-09-02T07:13:47;5.97;;;2.63;;
8708;SDS011;4391;48.678;9.280;2022-09-02T07:16:14;5.22;;;2.83;;
8708;SDS011;4391;48.678;9.280;2022-09-02T07:18:44;5.28;;;2.60;;
8708;SDS011;4391;48.678;9.280;2022-09-02T07:21:11;7.30;;;2.60;;
8708;SDS011;4391;48.678;9.280;2022-09-02T07:23:40;6.05;;;2.55;;
8708;SDS011;4391;48.678;9.280;2022-09-02T07:26:10;5.53;;;2.60;;
8708;SDS011;4391;48.678;9.280;2022-09-02T07:28:37;5.10;;;2.50;;
8708;SDS011;4391;48.678;9.280;2022-09-02T07:31:06;5.57;;;2.72;;
8708;SDS011;4391;48.678;9.280;2022-09-02T07:33:33;8.18;;;2.55;;
8708;SDS011;4391;48.678;9.280;2022-09-02T07:36:01;5.82;;;2.50;;
8708;SDS011;4391;48.678;9.280;2022-09-02T07:38:29;4.23;;;2.33;;
8708;SDS011;4391;48.678;9.280;2022-09-02T07:40:58;4.53;;;2.20;;
8708;SDS011;4391;48.678;9.280;2022-09-02T07:43:26;5.03;;;2.15;;
8708;SDS011;4391;48.678;9.280;2022-09-02T07:45:55;5.32;;;2.42;;
8708;SDS011;4391;48.678;9.280;2022-09-02T07:48:22;7.55;;;2.30;;
8708;SDS011;4391;48.678;9.280;2022-09-02T07:50:50;4.67;;;2.10;;
8708;SDS011;4391;48.678;9.280;2022-09-02T07:53:17;5.30;;;2.25;;
8708;SDS011;4391;48.678;9.280;2022-09-02T07:55:45;6.35;;;2.70;;
8708;SDS011;4391;48.678;9.280;2022-09-02T07:58:14;5.28;;;2.35;;
8708;SDS011;4391;48.678;9.280;2022-09-02T08:00:44;4.75;;;2.40;;
8708;SDS011;4391;48.678;9.280;2022-09-02T08:03:11;5.70;;;2.20;;
8708;SDS011;4391;48.678;9.280;2022-09-02T08:05:39;6.68;;;1.98;;
8708;SDS011;4391;48.678;9.280;2022-09-02T08:08:09;4.07;;;2.03;;
8708;SDS011;4391;48.678;9.280;2022-09-02T08:10:36;5.10;;;2.00;;
8708;SDS011;4391;48.678;9.280;2022-09-02T08:13:03;6.90;;;2.00;;
8708;SDS011;4391;48.678;9.280;2022-09-02T08:15:32;5.67;;;2.60;;
8708;SDS011;4391;48.678;9.280;2022-09-02T08:18:01;3.97;;;1.73;;
8708;SDS011;4391;48.678;9.280;2022-09-02T08:20:29;6.65;;;2.20;;
8708;SDS011;4391;48.678;9.280;2022-09-02T08:22:55;3.78;;;1.80;;
8708;SDS011;4391;48.678;9.280;2022-09-02T08:25:23;4.25;;;1.73;;
8708;SDS011;4391;48.678;9.280;2022-09-02T08:27:50;4.00;;;1.90;;
8708;SDS011;4391;48.678;9.280;2022-09-02T08:30:19;4.65;;;2.00;;
8708;SDS011;4391;48.678;9.280;2022-09-02T08:32:47;7.25;;;2.08;;
8708;SDS011;4391;48.678;9.280;2022-09-02T08:35:14;4.13;;;1.48;;
8708;SDS011;4391;48.678;9.280;2022-09-02T08:37:41;3.40;;;1.70;;
8708;SDS011;4391;48.678;9.280;2022-09-02T08:40:12;4.30;;;1.50;;
8708;SDS011;4391;48.678;9.280;2022-09-02T08:42:41;3.88;;;1.30;;
8708;SDS011;4391;48.678;9.280;2022-09-02T08:45:12;4.45;;;1.85;;
8708;SDS011;4391;48.678;9.280;2022-09-02T08:47:44;3.75;;;1.38;;
8708;SDS011;4391;48.678;9.280;2022-09-02T08:50:16;4.60;;;1.50;;
8708;SDS011;4391;48.678;9.280;2022-09-02T08:52:45;3.50;;;1.40;;
8708;SDS011;4391;48.678;9.280;2022-09-02T08:55:23;3.13;;;1.20;;
8708;SDS011;4391;48.678;9.280;2022-09-02T08:57:56;3.90;;;1.50;;
8708;SDS011;4391;48.678;9.280;2022-09-02T09:00:25;3.65;;;1.30;;
8708;SDS011;4391;48.678;9.280;2022-09-02T09:02:57;4.38;;;1.60;;
8708;SDS011;4391;48.678;9.280;2022-09-02T09:05:32;3.93;;;1.30;;
8708;SDS011;4391;48.678;9.280;2022-09-02T09:08:10;2.97;;;1.17;;
8708;SDS011;4391;48.678;9.280;2022-09-02T09:10:45;4.68;;;1.30;;
8708;SDS011;4391;48.678;9.280;2022-09-02T09:13:33;3.83;;;1.30;;
8708;SDS011;4391;48.678;9.280;2022-09-02T09:16:14;4.65;;;1.15;;
8708;SDS011;4391;48.678;9.280;2022-09-02T09:18:47;3.13;;;1.10;;
8708;SDS011;4391;48.678;9.280;2022-09-02T09:21:21;2.85;;;1.02;;
8708;SDS011;4391;48.678;9.280;2022-09-02T09:23:48;4.00;;;1.20;;
8708;SDS011;4391;48.678;9.280;2022-09-02T09:26:20;5.80;;;1.02;;
8708;SDS011;4391;48.678;9.280;2022-09-02T09:28:52;3.83;;;1.10;;
8708;SDS011;4391;48.678;9.280;2022-09-02T09:31:20;3.70;;;1.00;;
8708;SDS011;4391;48.678;9.280;2022-09-02T09:33:56;3.28;;;1.38;;
8708;SDS011;4391;48.678;9.280;2022-09-02T09:36:44;2.55;;;0.95;;
8708;SDS011;4391;48.678;9.280;2022-09-02T09:39:18;2.78;;;1.23;;
8708;SDS011;4391;48.678;9.280;2022-09-02T09:41:47;3.15;;;0.85;;
8708;SDS011;4391;48.678;9.280;2022-09-02T09:47:03;3.72;;;1.00;;
8708;SDS011;4391;48.678;9.280;2022-09-02T09:49:32;2.65;;;1.00;;
8708;SDS011;4391;48.678;9.280;2022-09-02T09:52:01;4.40;;;0.95;;
8708;SDS011;4391;48.678;9.280;2022-09-02T09:54:28;2.22;;;1.00;;
8708;SDS011;4391;48.678;9.280;2022-09-02T09:56:55;4.10;;;0.83;;
8708;SDS011;4391;48.678;9.280;2022-09-02T09:59:41;3.97;;;1.13;;
8708;SDS011;4391;48.678;9.280;2022-09-02T10:02:18;3.47;;;1.10;;
8708;SDS011;4391;48.678;9.280;2022-09-02T10:04:46;2.70;;;0.90;;
8708;SDS011;4391;48.678;9.280;2022-09-02T10:07:14;5.20;;;1.08;;
8708;SDS011;4391;48.678;9.280;2022-09-02T10:10:07;2.42;;;0.90;;
8708;SDS011;4391;48.678;9.280;2022-09-02T10:12:41;2.30;;;1.00;;
8708;SDS011;4391;48.678;9.280;2022-09-02T10:15:09;2.72;;;1.00;;
8708;SDS011;4391;48.678;9.280;2022-09-02T10:17:37;3.40;;;0.90;;
8708;SDS011;4391;48.678;9.280;2022-09-02T10:20:12;3.15;;;0.77;;
8708;SDS011;4391;48.678;9.280;2022-09-02T10:23:01;2.67;;;1.08;;
8708;SDS011;4391;48.678;9.280;2022-09-02T10:25:50;2.63;;;0.70;;
8708;SDS011;4391;48.678;9.280;2022-09-02T10:28:31;2.90;;;0.90;;
8708;SDS011;4391;48.678;9.280;2022-09-02T10:31:14;4.00;;;1.00;;
8708;SDS011;4391;48.678;9.280;2022-09-02T10:33:53;2.92;;;0.93;;
8708;SDS011;4391;48.678;9.280;2022-09-02T10:36:31;2.78;;;0.60;;
8708;SDS011;4391;48.678;9.280;2022-09-02T10:39:07;2.50;;;1.10;;
8708;SDS011;4391;48.678;9.280;2022-09-02T10:41:42;4.47;;;1.00;;
8708;SDS011;4391;48.678;9.280;2022-09-02T10:44:21;5.37;;;1.00;;
8708;SDS011;4391;48.678;9.280;2022-09-02T10:46:57;2.47;;;0.82;;
8708;SDS011;4391;48.678;9.280;2022-09-02T10:49:32;2.58;;;1.05;;
8708;SDS011;4391;48.678;9.280;2022-09-02T10:52:11;3.20;;;0.70;;
8708;SDS011;4391;48.678;9.280;2022-09-02T10:54:54;3.42;;;1.00;;
8708;SDS011;4391;48.678;9.280;2022-09-02T10:57:27;4.25;;;0.93;;
8708;SDS011;4391;48.678;9.280;2022-09-02T10:59:59;2.90;;;0.73;;
8708;SDS011;4391;48.678;9.280;2022-09-02T11:02:35;2.95;;;0.90;;
8708;SDS011;4391;48.678;9.280;2022-09-02T11:05:06;4.03;;;0.93;;
8708;SDS011;4391;48.678;9.280;2022-09-02T11:07:40;4.40;;;0.90;;
8708;SDS011;4391;48.678;9.280;2022-09-02T11:10:14;3.42;;;0.80;;
8708;SDS011;4391;48.678;9.280;2022-09-02T11:12:46;3.20;;;0.77;;
8708;SDS011;4391;48.678;9.280;2022-09-02T11:15:17;2.00;;;0.80;;
8708;SDS011;4391;48.678;9.280;2022-09-02T11:17:48;3.92;;;0.70;;
8708;SDS011;4391;48.678;9.280;2022-09-02T11:20:25;2.25;;;0.90;;
8708;SDS011;4391;48.678;9.280;2022-09-02T11:22:56;2.70;;;0.95;;
8708;SDS011;4391;48.678;9.280;2022-09-02T11:25:29;3.67;;;0.80;;
8708;SDS011;4391;48.678;9.280;2022-09-02T11:28:04;3.23;;;0.70;;
8708;SDS011;4391;48.678;9.280;2022-09-02T11:30:50;5.65;;;0.80;;
8708;SDS011;4391;48.678;9.280;2022-09-02T11:33:22;3.28;;;0.80;;
8708;SDS011;4391;48.678;9.280;2022-09-02T11:35:54;4.93;;;0.90;;
8708;SDS011;4391;48.678;9.280;2022-09-02T11:38:28;3.35;;;0.77;;
8708;SDS011;4391;48.678;9.280;2022-09-02T11:41:08;3.95;;;0.90;;
8708;SDS011;4391;48.678;9.280;2022-09-02T11:43:51;4.00;;;0.70;;
8708;SDS011;4391;48.678;9.280;2022-09-02T11:52:03;2.50;;;0.90;;
8708;SDS011;4391;48.678;9.280;2022-09-02T11:54:46;4.93;;;0.77;;
8708;SDS011;4391;48.678;9.280;2022-09-02T11:57:21;3.22;;;0.77;;
8708;SDS011;4391;48.678;9.280;2022-09-02T12:00:04;2.92;;;0.90;;
8708;SDS011;4391;48.678;9.280;2022-09-02T12:02:55;2.22;;;0.80;;
8708;SDS011;4391;48.678;9.280;2022-09-02T12:05:46;2.38;;;0.80;;
8708;SDS011;4391;48.678;9.280;2022-09-02T12:11:37;3.13;;;0.80;;
8708;SDS011;4391;48.678;9.280;2022-09-02T12:29:47;2.43;;;0.80;;
8708;SDS011;4391;48.678;9.280;2022-09-02T12:38:23;2.72;;;0.80;;
8708;SDS011;4391;48.678;9.280;2022-09-02T12:40:53;2.22;;;0.80;;
8708;SDS011;4391;48.678;9.280;2022-09-02T12:43:42;3.30;;;0.80;;
8708;SDS011;4391;48.678;9.280;2022-09-02T12:46:16;1.52;;;0.65;;
8708;SDS011;4391;48.678;9.280;2022-09-02T12:48:56;4.22;;;1.05;;
8708;SDS011;4391;48.678;9.280;2022-09-02T12:54:19;2.43;;;0.73;;
8708;SDS011;4391;48.678;9.280;2022-09-02T12:56:50;2.58;;;0.80;;
8708;SDS011;4391;48.678;9.280;2022-09-02T12:59:20;2.13;;;0.82;;
8708;SDS011;4391;48.678;9.280;2022-09-02T13:01:57;3.13;;;0.80;;
8708;SDS011;4391;48.678;9.280;2022-09-02T13:04:37;1.90;;;0.70;;
8708;SDS011;4391;48.678;9.280;2022-09-02T13:07:16;3.47;;;0.70;;
8708;SDS011;4391;48.678;9.280;2022-09-02T13:10:14;3.17;;;0.90;;
8708;SDS011;4391;48.678;9.280;2022-09-02T13:15:50;2.22;;;0.80;;
8708;SDS011;4391;48.678;9.280;2022-09-02T13:18:37;2.40;;;0.90;;
8708;SDS011;4391;48.678;9.280;2022-09-02T13:27:29;2.95;;;0.73;;
8708;SDS011;4391;48.678;9.280;2022-09-02T13:30:13;2.10;;;0.80;;
8708;SDS011;4391;48.678;9.280;2022-09-02T13:32:44;2.67;;;0.80;;
8708;SDS011;4391;48.678;9.280;2022-09-02T13:35:15;5.75;;;0.80;;
8708;SDS011;4391;48.678;9.280;2022-09-02T13:37:44;2.30;;;0.55;;
8708;SDS011;4391;48.678;9.280;2022-09-02T13:40:22;2.50;;;0.80;;
8708;SDS011;4391;48.678;9.280;2022-09-02T13:42:52;2.60;;;0.82;;
8708;SDS011;4391;48.678;9.280;2022-09-02T13:45:21;3.55;;;0.82;;
8708;SDS011;4391;48.678;9.280;2022-09-02T13:47:49;3.60;;;0.77;;
8708;SDS011;4391;48.678;9.280;2022-09-02T13:50:19;3.93;;;0.70;;
8708;SDS011;4391;48.678;9.280;2022-09-02T13:52:49;3.33;;;0.83;;
8708;SDS011;4391;48.678;9.280;2022-09-02T13:55:19;1.73;;;0.70;;
8708;SDS011;4391;48.678;9.280;2022-09-02T13:57:55;1.23;;;0.50;;
8708;SDS011;4391;48.678;9.280;2022-09-02T14:00:30;2.50;;;0.80;;
8708;SDS011;4391;48.678;9.280;2022-09-02T14:02:59;3.15;;;0.98;;
8708;SDS011;4391;48.678;9.280;2022-09-02T14:05:28;2.30;;;0.70;;
8708;SDS011;4391;48.678;9.280;2022-09-02T14:07:57;5.35;;;0.90;;
8708;SDS011;4391;48.678;9.280;2022-09-02T14:10:27;1.93;;;0.70;;
8708;SDS011;4391;48.678;9.280;2022-09-02T14:12:55;2.93;;;0.77;;
8708;SDS011;4391;48.678;9.280;2022-09-02T14:15:24;3.72;;;0.60;;
8708;SDS011;4391;48.678;9.280;2022-09-02T14:18:05;2.50;;;0.60;;
8708;SDS011;4391;48.678;9.280;2022-09-02T14:20:38;3.00;;;0.80;;
8708;SDS011;4391;48.678;9.280;2022-09-02T14:23:17;2.33;;;0.70;;
8708;SDS011;4391;48.678;9.280;2022-09-02T14:25:47;1.83;;;0.70;;
8708;SDS011;4391;48.678;9.280;2022-09-02T14:28:17;2.10;;;0.60;;
8708;SDS011;4391;48.678;9.280;2022-09-02T14:30:54;2.88;;;0.80;;
8708;SDS011;4391;48.678;9.280;2022-09-02T14:33:24;2.93;;;0.70;;
8708;SDS011;4391;48.678;9.280;2022-09-02T14:35:59;4.05;;;0.95;;
8708;SDS011;4391;48.678;9.280;2022-09-02T14:38:29;3.47;;;0.75;;
8708;SDS011;4391;48.678;9.280;2022-09-02T14:40:59;2.80;;;0.73;;
8708;SDS011;4391;48.678;9.280;2022-09-02T14:43:29;4.93;;;0.80;;
8708;SDS011;4391;48.678;9.280;2022-09-02T14:46:12;3.10;;;0.75;;
8708;SDS011;4391;48.678;9.280;2022-09-02T14:48:49;2.30;;;0.70;;
8708;SDS011;4391;48.678;9.280;2022-09-02T14:51:19;3.80;;;0.75;;
8708;SDS011;4391;48.678;9.280;2022-09-02T14:53:46;3.80;;;0.97;;
8708;SDS011;4391;48.678;9.280;2022-09-02T14:56:13;2.37;;;0.70;;
8708;SDS011;4391;48.678;9.280;2022-09-02T14:58:40;2.30;;;0.63;;
8708;SDS011;4391;48.678;9.280;2022-09-02T15:01:09;2.90;;;0.70;;
8708;SDS011;4391;48.678;9.280;2022-09-02T15:03:38;2.97;;;0.80;;
8708;SDS011;4391;48.678;9.280;2022-09-02T15:06:08;2.38;;;0.77;;
8708;SDS011;4391;48.678;9.280;2022-09-02T15:08:37;5.13;;;0.80;;
8708;SDS011;4391;48.678;9.280;2022-09-02T15:11:08;2.08;;;0.60;;
8708;SDS011;4391;48.678;9.280;2022-09-02T15:13:38;1.92;;;0.65;;
8708;SDS011;4391;48.678;9.280;2022-09-02T15:16:05;3.53;;;0.77;;
8708;SDS011;4391;48.678;9.280;2022-09-02T15:18:34;2.30;;;0.70;;
8708;SDS011;4391;48.678;9.280;2022-09-02T15:21:01;5.53;;;0.70;;
8708;SDS011;4391;48.678;9.280;2022-09-02T15:23:29;3.53;;;0.70;;
8708;SDS011;4391;48.678;9.280;2022-09-02T15:25:56;4.05;;;1.00;;
8708;SDS011;4391;48.678;9.280;2022-09-02T15:28:23;3.47;;;0.80;;
8708;SDS011;4391;48.678;9.280;2022-09-02T15:30:55;3.25;;;0.52;;
8708;SDS011;4391;48.678;9.280;2022-09-02T15:33:23;2.38;;;0.60;;
8708;SDS011;4391;48.678;9.280;2022-09-02T15:35:52;3.35;;;0.70;;
8708;SDS011;4391;48.678;9.280;2022-09-02T15:38:19;2.33;;;0.80;;
8708;SDS011;4391;48.678;9.280;2022-09-02T15:40:46;2.50;;;0.82;;
8708;SDS011;4391;48.678;9.280;2022-09-02T15:43:13;2.50;;;0.80;;
8708;SDS011;4391;48.678;9.280;2022-09-02T15:45:43;2.07;;;0.80;;
8708;SDS011;4391;48.678;9.280;2022-09-02T15:48:11;3.47;;;0.80;;
8708;SDS011;4391;48.678;9.280;2022-09-02T15:50:38;4.53;;;1.10;;
8708;SDS011;4391;48.678;9.280;2022-09-02T15:53:06;3.22;;;1.10;;
8708;SDS011;4391;48.678;9.280;2022-09-02T15:55:33;3.83;;;0.90;;
8708;SDS011;4391;48.678;9.280;2022-09-02T15:58:00;2.13;;;1.00;;
8708;SDS011;4391;48.678;9.280;2022-09-02T16:00:27;3.30;;;0.90;;
8708;SDS011;4391;48.678;9.280;2022-09-02T16:02:58;3.00;;;0.90;;
8708;SDS011;4391;48.678;9.280;2022-09-02T16:05:26;5.07;;;1.00;;
8708;SDS011;4391;48.678;9.280;2022-09-02T16:07:53;2.67;;;1.20;;
8708;SDS011;4391;48.678;9.280;2022-09-02T16:10:21;3.25;;;1.10;;
8708;SDS011;4391;48.678;9.280;2022-09-02T16:12:48;2.83;;;1.00;;
8708;SDS011;4391;48.678;9.280;2022-09-02T16:15:15;2.20;;;0.90;;
8708;SDS011;4391;48.678;9.280;2022-09-02T16:17:42;2.73;;;1.10;;
8708;SDS011;4391;48.678;9.280;2022-09-02T16:20:09;3.85;;;1.58;;